Time;durP1;ratioP1;P1;durP2;ratioP2;P2;SDS_P1;SDS_P2;PMS_P1;PMS_P2;Temp;Humidity;BMP_temperature;BMP_pressure;BME280_temperature;BME280_humidity;BME280_pressure;Samples;Min_cycle;Max_cycle;Signal;HPM_P1;HPM_P2
2021/12/09 00:00:51;;;;;;;16.42;10.38;;;;;;;;;;6153751;23;20017;-79
2021/12/09 00:03:17;;;;;;;17.90;10.77;;;;;;;;;;6154001;23;20017;-79
2021/12/09 00:05:44;;;;;;;20.08;11.10;;;;;;;;;;6129340;23;20397;-79
2021/12/09 00:08:11;;;;;;;18.65;11.18;;;;;;;;;;6153873;23;20021;-79
2021/12/09 00:10:37;;;;;;;16.42;9.63;;;;;;;;;;6129462;23;20096;-79
2021/12/09 00:13:05;;;;;;;21.85;11.02;;;;;;;;;;6153920;23;20390;-79
2021/12/09 00:15:31;;;;;;;20.17;12.10;;;;;;;;;;6154180;23;20013;-79
2021/12/09 00:17:57;;;;;;;18.58;10.80;;;;;;;;;;6154004;23;20023;-79
2021/12/09 00:20:23;;;;;;;20.05;11.88;;;;;;;;;;6153834;23;20028;-79
2021/12/09 00:22:49;;;;;;;21.65;11.80;;;;;;;;;;6153966;23;20017;-79
2021/12/09 00:25:15;;;;;;;19.30;11.13;;;;;;;;;;6153834;23;20021;-79
2021/12/09 00:27:42;;;;;;;20.90;10.90;;;;;;;;;;6153624;23;20021;-79
2021/12/09 00:30:10;;;;;;;19.17;12.20;;;;;;;;;;6129297;23;20207;-79
2021/12/09 00:32:36;;;;;;;20.85;12.25;;;;;;;;;;6153813;23;20017;-79
2021/12/09 00:35:03;;;;;;;21.55;12.65;;;;;;;;;;6129489;23;20071;-79
2021/12/09 00:37:37;;;;;;;20.13;12.68;;;;;;;;;;6153936;23;20379;-79
2021/12/09 00:40:03;;;;;;;21.77;13.45;;;;;;;;;;6153894;23;20552;-79
2021/12/09 00:42:29;;;;;;;20.77;12.90;;;;;;;;;;6153629;23;20092;-79
2021/12/09 00:44:56;;;;;;;18.73;10.95;;;;;;;;;;6129141;23;20498;-79
2021/12/09 00:47:22;;;;;;;19.35;11.77;;;;;;;;;;6129063;23;20092;-79
2021/12/09 00:49:49;;;;;;;17.58;11.80;;;;;;;;;;6153630;23;20009;-79
2021/12/09 00:52:15;;;;;;;20.95;13.52;;;;;;;;;;6153612;23;20449;-79
2021/12/09 00:54:42;;;;;;;24.45;13.50;;;;;;;;;;6153817;23;20471;-79
2021/12/09 00:57:09;;;;;;;26.67;13.15;;;;;;;;;;6153545;23;20013;-79
2021/12/09 00:59:35;;;;;;;26.25;15.00;;;;;;;;;;6153248;23;20009;-79
2021/12/09 01:02:01;;;;;;;22.70;14.10;;;;;;;;;;6153523;23;20013;-78
2021/12/09 01:04:27;;;;;;;23.77;14.65;;;;;;;;;;6153273;23;20016;-79
2021/12/09 01:06:53;;;;;;;25.92;15.93;;;;;;;;;;6153357;23;20517;-79
2021/12/09 01:09:19;;;;;;;19.92;13.32;;;;;;;;;;6153381;23;20051;-79
2021/12/09 01:11:45;;;;;;;23.67;14.65;;;;;;;;;;6153370;23;20020;-79
2021/12/09 01:14:11;;;;;;;25.50;15.48;;;;;;;;;;6153329;23;20051;-79
2021/12/09 01:16:37;;;;;;;24.92;14.85;;;;;;;;;;6153344;23;20013;-79
2021/12/09 01:19:04;;;;;;;24.35;15.68;;;;;;;;;;6153743;23;20139;-79
2021/12/09 01:21:30;;;;;;;26.42;15.65;;;;;;;;;;6153305;23;20173;-78
2021/12/09 01:23:56;;;;;;;22.98;16.70;;;;;;;;;;6153394;23;20013;-79
2021/12/09 01:26:23;;;;;;;23.02;15.55;;;;;;;;;;6128848;23;20099;-79
2021/12/09 01:28:52;;;;;;;19.85;12.85;;;;;;;;;;6153224;23;20063;-79
2021/12/09 01:31:26;;;;;;;21.17;14.48;;;;;;;;;;6153241;23;20438;-79
2021/12/09 01:33:53;;;;;;;21.65;14.32;;;;;;;;;;6128785;23;20116;-79
2021/12/09 01:36:19;;;;;;;26.73;15.38;;;;;;;;;;6128617;23;20044;-79
2021/12/09 01:38:45;;;;;;;23.90;15.10;;;;;;;;;;6128742;23;20016;-78
2021/12/09 01:41:11;;;;;;;25.17;15.40;;;;;;;;;;6153306;23;20020;-79
2021/12/09 01:43:37;;;;;;;26.30;15.90;;;;;;;;;;6128547;23;20332;-78
2021/12/09 01:46:08;;;;;;;22.42;15.40;;;;;;;;;;6153235;23;20013;-79
2021/12/09 01:48:34;;;;;;;27.98;15.95;;;;;;;;;;6153142;23;20359;-79
2021/12/09 01:51:00;;;;;;;20.38;14.13;;;;;;;;;;6127585;23;20013;-79
2021/12/09 01:53:26;;;;;;;21.67;14.15;;;;;;;;;;6128602;23;20410;-79
2021/12/09 01:55:55;;;;;;;21.95;14.00;;;;;;;;;;6152973;23;20060;-79
2021/12/09 01:58:21;;;;;;;22.70;14.43;;;;;;;;;;6153119;23;20013;-79
2021/12/09 02:00:47;;;;;;;22.25;13.73;;;;;;;;;;6153175;23;20017;-79
2021/12/09 02:03:13;;;;;;;19.98;13.48;;;;;;;;;;6128298;23;20013;-79
2021/12/09 02:05:40;;;;;;;20.67;13.73;;;;;;;;;;6153081;23;20379;-79
2021/12/09 02:08:07;;;;;;;19.05;13.73;;;;;;;;;;6128600;23;20073;-79
2021/12/09 02:10:33;;;;;;;23.00;15.15;;;;;;;;;;6128595;23;20446;-79
2021/12/09 02:12:59;;;;;;;22.75;15.30;;;;;;;;;;6128543;23;20297;-79
2021/12/09 02:15:26;;;;;;;24.77;15.45;;;;;;;;;;6153015;23;20478;-79
2021/12/09 02:17:55;;;;;;;24.95;14.60;;;;;;;;;;6128640;23;20021;-79
2021/12/09 02:20:21;;;;;;;23.77;14.38;;;;;;;;;;6152791;23;20084;-79
2021/12/09 02:22:48;;;;;;;20.23;13.80;;;;;;;;;;6153039;23;20051;-79
2021/12/09 02:25:15;;;;;;;22.17;16.17;;;;;;;;;;6128245;23;20024;-79
2021/12/09 02:27:41;;;;;;;20.80;14.52;;;;;;;;;;6152945;23;20092;-79
2021/12/09 02:30:07;;;;;;;24.08;16.13;;;;;;;;;;6128388;23;20347;-79
2021/12/09 02:32:34;;;;;;;24.13;16.38;;;;;;;;;;6127937;23;20016;-79
2021/12/09 02:35:00;;;;;;;25.55;17.00;;;;;;;;;;6152984;23;20400;-79
2021/12/09 02:37:25;;;;;;;28.95;18.08;;;;;;;;;;6152969;23;20013;-79
2021/12/09 02:39:52;;;;;;;30.38;19.35;;;;;;;;;;6127972;23;20509;-79
2021/12/09 02:42:18;;;;;;;29.20;18.63;;;;;;;;;;6152691;23;20505;-79
2021/12/09 02:44:45;;;;;;;26.83;16.75;;;;;;;;;;6152683;23;20017;-78
2021/12/09 02:47:11;;;;;;;28.50;17.85;;;;;;;;;;6128183;23;20462;-79
2021/12/09 02:49:37;;;;;;;29.70;18.55;;;;;;;;;;6128560;23;20013;-79
2021/12/09 02:52:04;;;;;;;32.40;19.67;;;;;;;;;;6128312;23;20024;-79
2021/12/09 02:54:31;;;;;;;33.05;20.13;;;;;;;;;;6128344;23;20020;-79
2021/12/09 02:56:59;;;;;;;29.63;19.45;;;;;;;;;;6152607;23;20009;-79
2021/12/09 02:59:25;;;;;;;34.50;20.67;;;;;;;;;;6152815;23;20009;-79
2021/12/09 03:01:59;;;;;;;34.17;21.52;;;;;;;;;;6128501;23;20009;-79
2021/12/09 03:04:39;;;;;;;30.00;19.80;;;;;;;;;;6153905;23;20291;-79
2021/12/09 03:07:10;;;;;;;28.27;20.17;;;;;;;;;;6129859;23;20020;-79
2021/12/09 03:09:37;;;;;;;35.72;21.75;;;;;;;;;;6154612;23;20019;-79
2021/12/09 03:12:04;;;;;;;36.00;21.25;;;;;;;;;;6154452;23;20017;-79
2021/12/09 03:14:30;;;;;;;35.90;22.02;;;;;;;;;;6129893;23;20048;-79
2021/12/09 03:16:56;;;;;;;25.65;17.10;;;;;;;;;;6130052;23;20013;-79
2021/12/09 03:19:22;;;;;;;28.73;20.40;;;;;;;;;;6129769;23;20240;-79
2021/12/09 03:21:48;;;;;;;31.38;19.70;;;;;;;;;;6154358;23;20232;-79
2021/12/09 03:24:16;;;;;;;35.40;20.17;;;;;;;;;;6154706;23;20485;-79
2021/12/09 03:26:56;;;;;;;26.75;19.40;;;;;;;;;;6154507;23;20027;-78
2021/12/09 03:29:23;;;;;;;27.38;18.98;;;;;;;;;;6154279;23;20537;-79
2021/12/09 03:31:50;;;;;;;32.75;20.63;;;;;;;;;;6154287;23;20009;-78
2021/12/09 03:34:17;;;;;;;33.58;22.98;;;;;;;;;;6154301;23;20367;-79
2021/12/09 03:36:43;;;;;;;33.75;22.63;;;;;;;;;;6129628;23;20017;-79
2021/12/09 03:39:16;;;;;;;37.63;23.83;;;;;;;;;;6129993;23;20017;-79
2021/12/09 03:41:43;;;;;;;38.75;23.45;;;;;;;;;;6154176;23;20021;-79
2021/12/09 03:44:09;;;;;;;34.10;22.40;;;;;;;;;;6154145;23;20016;-79
2021/12/09 03:46:35;;;;;;;35.60;22.35;;;;;;;;;;6129538;23;20021;-79
2021/12/09 03:49:01;;;;;;;34.40;24.67;;;;;;;;;;6129485;23;20481;-79
2021/12/09 03:51:27;;;;;;;42.42;24.92;;;;;;;;;;6128979;23;20024;-79
2021/12/09 03:53:54;;;;;;;36.40;24.45;;;;;;;;;;6153998;23;20013;-79
2021/12/09 03:56:20;;;;;;;38.20;25.08;;;;;;;;;;6153648;23;20504;-79
2021/12/09 03:58:46;;;;;;;39.25;24.50;;;;;;;;;;6154045;23;20096;-79
2021/12/09 04:01:12;;;;;;;36.88;24.23;;;;;;;;;;6129401;23;20017;-79
2021/12/09 04:03:38;;;;;;;41.38;25.77;;;;;;;;;;6129525;23;20020;-79
2021/12/09 04:06:04;;;;;;;40.75;26.33;;;;;;;;;;6153807;23;20447;-79
2021/12/09 04:08:30;;;;;;;39.00;25.95;;;;;;;;;;6129621;23;20097;-79
2021/12/09 04:10:57;;;;;;;40.15;24.98;;;;;;;;;;6129491;23;20017;-79
2021/12/09 04:13:23;;;;;;;39.45;24.75;;;;;;;;;;6153918;23;20009;-79
2021/12/09 04:15:49;;;;;;;37.25;25.30;;;;;;;;;;6129361;23;20087;-79
2021/12/09 04:18:15;;;;;;;39.40;26.33;;;;;;;;;;6129254;23;20055;-79
2021/12/09 04:20:41;;;;;;;35.58;24.42;;;;;;;;;;6153978;23;20079;-79
2021/12/09 04:23:08;;;;;;;36.83;25.40;;;;;;;;;;6153788;23;20017;-79
2021/12/09 04:25:34;;;;;;;36.55;24.65;;;;;;;;;;6153874;23;20024;-79
2021/12/09 04:28:00;;;;;;;43.38;27.08;;;;;;;;;;6153510;23;20013;-79
2021/12/09 04:30:26;;;;;;;36.05;24.27;;;;;;;;;;6129087;23;20009;-79
2021/12/09 04:32:53;;;;;;;40.05;25.35;;;;;;;;;;6153864;23;20028;-79
2021/12/09 04:35:20;;;;;;;45.25;26.02;;;;;;;;;;6153808;23;20009;-78
2021/12/09 04:37:47;;;;;;;45.60;26.75;;;;;;;;;;6154000;23;20013;-79
2021/12/09 04:40:13;;;;;;;36.38;24.50;;;;;;;;;;6129108;23;20020;-79
2021/12/09 04:42:39;;;;;;;39.53;25.95;;;;;;;;;;6129085;23;20467;-79
2021/12/09 04:45:05;;;;;;;42.42;27.77;;;;;;;;;;6153650;23;20017;-79
2021/12/09 04:47:31;;;;;;;43.47;27.98;;;;;;;;;;6153130;23;20013;-79
2021/12/09 04:49:57;;;;;;;39.47;26.10;;;;;;;;;;6153225;23;20020;-79
2021/12/09 04:52:23;;;;;;;43.95;27.15;;;;;;;;;;6153518;23;20009;-79
2021/12/09 04:54:50;;;;;;;39.20;27.13;;;;;;;;;;6153480;23;20015;-79
2021/12/09 04:57:16;;;;;;;49.15;27.58;;;;;;;;;;6128642;23;20013;-79
2021/12/09 04:59:42;;;;;;;43.85;28.35;;;;;;;;;;6128971;23;20017;-79
2021/12/09 05:02:13;;;;;;;39.80;27.50;;;;;;;;;;6128933;23;20408;-79
2021/12/09 05:04:39;;;;;;;40.85;25.58;;;;;;;;;;6153324;23;20017;-78
2021/12/09 05:07:05;;;;;;;40.28;27.27;;;;;;;;;;6153376;23;20017;-79
2021/12/09 05:09:37;;;;;;;39.28;27.20;;;;;;;;;;6128945;23;20076;-79
2021/12/09 05:12:05;;;;;;;37.80;25.38;;;;;;;;;;6153259;23;20080;-79
2021/12/09 05:14:31;;;;;;;39.00;26.13;;;;;;;;;;6153412;23;20013;-79
2021/12/09 05:16:57;;;;;;;41.90;25.67;;;;;;;;;;6128868;23;20067;-79
2021/12/09 05:19:24;;;;;;;32.33;22.05;;;;;;;;;;6128747;23;20016;-79
2021/12/09 05:21:52;;;;;;;36.25;26.25;;;;;;;;;;6153401;23;20443;-78
2021/12/09 05:24:19;;;;;;;35.03;22.77;;;;;;;;;;6153179;23;20331;-79
2021/12/09 05:26:48;;;;;;;35.78;23.48;;;;;;;;;;6128390;23;20009;-79
2021/12/09 05:29:15;;;;;;;38.97;25.17;;;;;;;;;;6153298;23;20024;-79
2021/12/09 05:34:26;;;;;;;38.83;25.55;;;;;;;;;;6153197;23;20053;-79
2021/12/09 05:36:52;;;;;;;39.28;24.08;;;;;;;;;;6153221;23;20067;-79
2021/12/09 05:39:18;;;;;;;39.03;24.58;;;;;;;;;;6153184;23;20024;-78
2021/12/09 05:41:45;;;;;;;36.05;24.67;;;;;;;;;;6128543;23;20044;-79
2021/12/09 05:44:11;;;;;;;38.45;25.75;;;;;;;;;;6153217;23;20017;-79
2021/12/09 05:46:39;;;;;;;33.38;23.35;;;;;;;;;;6152438;23;20096;-79
2021/12/09 05:49:05;;;;;;;29.83;21.90;;;;;;;;;;6153052;23;20013;-79
2021/12/09 05:51:32;;;;;;;41.65;26.85;;;;;;;;;;6127671;23;20084;-79
2021/12/09 05:53:58;;;;;;;39.65;24.63;;;;;;;;;;6152915;23;20009;-79
2021/12/09 05:56:24;;;;;;;37.28;24.73;;;;;;;;;;6153256;23;20013;-79
2021/12/09 05:58:50;;;;;;;42.75;27.50;;;;;;;;;;6153017;23;20521;-79
2021/12/09 06:01:16;;;;;;;45.95;27.70;;;;;;;;;;6128422;23;20049;-78
2021/12/09 06:03:42;;;;;;;45.72;27.77;;;;;;;;;;6128584;23;20021;-79
2021/12/09 06:06:09;;;;;;;45.03;27.38;;;;;;;;;;6152842;23;20051;-78
2021/12/09 06:08:37;;;;;;;40.33;27.30;;;;;;;;;;6153093;23;20187;-78
2021/12/09 06:11:04;;;;;;;39.53;26.25;;;;;;;;;;6153031;23;20075;-78
2021/12/09 06:13:31;;;;;;;43.83;27.35;;;;;;;;;;6128437;23;20092;-78
2021/12/09 06:15:57;;;;;;;42.60;28.00;;;;;;;;;;6153121;23;20028;-78
2021/12/09 06:18:23;;;;;;;45.80;27.52;;;;;;;;;;6153018;23;20017;-78
2021/12/09 06:20:49;;;;;;;43.15;28.08;;;;;;;;;;6128412;23;20013;-79
2021/12/09 06:23:15;;;;;;;45.63;27.30;;;;;;;;;;6128353;23;20012;-78
2021/12/09 06:25:41;;;;;;;42.10;27.92;;;;;;;;;;6128552;23;20024;-78
2021/12/09 06:28:07;;;;;;;42.00;27.10;;;;;;;;;;6128307;23;20096;-79
2021/12/09 06:30:33;;;;;;;35.80;24.42;;;;;;;;;;6153138;23;20395;-79
2021/12/09 06:32:59;;;;;;;43.63;27.40;;;;;;;;;;6128446;23;20610;-79
2021/12/09 06:35:27;;;;;;;41.55;27.00;;;;;;;;;;6152653;23;20332;-79
2021/12/09 06:37:53;;;;;;;38.83;24.88;;;;;;;;;;6152810;23;20021;-80
2021/12/09 06:40:20;;;;;;;47.72;27.88;;;;;;;;;;6129968;23;20481;-80
2021/12/09 06:42:47;;;;;;;37.70;25.63;;;;;;;;;;6129335;23;20198;-80
2021/12/09 06:45:14;;;;;;;41.17;27.17;;;;;;;;;;6154704;23;20060;-79
2021/12/09 06:47:40;;;;;;;40.67;26.73;;;;;;;;;;6129987;23;20454;-79
2021/12/09 06:50:08;;;;;;;51.92;29.65;;;;;;;;;;6129762;23;20009;-79
2021/12/09 06:52:34;;;;;;;44.00;27.77;;;;;;;;;;6153344;23;20009;-80
2021/12/09 06:55:00;;;;;;;39.63;25.77;;;;;;;;;;6153986;23;20043;-80
2021/12/09 06:57:26;;;;;;;43.95;27.67;;;;;;;;;;6153223;23;20013;-80
2021/12/09 06:59:52;;;;;;;44.13;27.90;;;;;;;;;;6129425;23;20096;-80
2021/12/09 07:02:18;;;;;;;47.90;28.52;;;;;;;;;;6154041;23;20481;-79
2021/12/09 07:04:44;;;;;;;39.90;25.45;;;;;;;;;;6129313;23;20013;-78
2021/12/09 07:07:10;;;;;;;39.90;23.88;;;;;;;;;;6129635;23;20023;-78
2021/12/09 07:09:38;;;;;;;35.92;23.65;;;;;;;;;;6154382;23;20094;-79
2021/12/09 07:12:04;;;;;;;36.35;25.88;;;;;;;;;;6154436;23;20009;-79
2021/12/09 07:14:30;;;;;;;41.22;21.83;;;;;;;;;;6154502;23;20040;-80
2021/12/09 07:16:56;;;;;;;33.00;22.13;;;;;;;;;;6154605;23;20379;-80
2021/12/09 07:19:22;;;;;;;30.92;21.17;;;;;;;;;;6154477;23;20052;-79
2021/12/09 07:21:48;;;;;;;43.63;25.23;;;;;;;;;;6154315;23;20494;-81
2021/12/09 07:24:14;;;;;;;42.03;25.48;;;;;;;;;;6154418;23;20013;-80
2021/12/09 07:26:41;;;;;;;42.22;26.90;;;;;;;;;;6130079;23;20013;-80
2021/12/09 07:29:07;;;;;;;40.47;26.45;;;;;;;;;;6129570;23;20439;-80
2021/12/09 07:31:33;;;;;;;44.53;26.85;;;;;;;;;;6129497;23;20024;-81
2021/12/09 07:34:00;;;;;;;48.90;27.75;;;;;;;;;;6129337;23;20028;-81
2021/12/09 07:36:26;;;;;;;46.50;28.70;;;;;;;;;;6128921;23;20025;-80
2021/12/09 07:38:52;;;;;;;47.95;28.27;;;;;;;;;;6130949;23;20021;-80
2021/12/09 07:41:18;;;;;;;46.85;29.20;;;;;;;;;;6157114;23;20075;-80
2021/12/09 07:43:45;;;;;;;49.30;30.88;;;;;;;;;;6156709;23;20394;-80
2021/12/09 07:46:11;;;;;;;47.80;29.85;;;;;;;;;;6153923;23;20025;-80
2021/12/09 07:48:37;;;;;;;47.13;30.75;;;;;;;;;;6153808;23;20070;-80
2021/12/09 07:51:03;;;;;;;45.38;30.20;;;;;;;;;;6153717;23;20463;-80
2021/12/09 07:53:29;;;;;;;47.38;28.10;;;;;;;;;;6129547;23;20363;-80
2021/12/09 07:55:56;;;;;;;49.47;30.88;;;;;;;;;;6129590;23;20446;-80
2021/12/09 07:58:22;;;;;;;50.60;29.52;;;;;;;;;;6129646;23;20572;-80
2021/12/09 08:00:48;;;;;;;47.42;28.35;;;;;;;;;;6154132;23;20017;-79
2021/12/09 08:03:15;;;;;;;47.03;28.85;;;;;;;;;;6129549;23;20079;-80
2021/12/09 08:05:46;;;;;;;49.72;31.75;;;;;;;;;;6106119;23;20096;-79
2021/12/09 08:08:12;;;;;;;44.75;27.20;;;;;;;;;;6153799;23;20055;-79
2021/12/09 08:10:38;;;;;;;47.53;28.98;;;;;;;;;;6129393;23;20341;-79
2021/12/09 08:13:04;;;;;;;49.10;30.17;;;;;;;;;;6153524;23;20013;-79
2021/12/09 08:15:37;;;;;;;46.22;29.70;;;;;;;;;;6128469;23;20443;-79
2021/12/09 08:18:25;;;;;;;52.20;30.20;;;;;;;;;;6129028;23;20020;-80
2021/12/09 08:20:51;;;;;;;46.45;27.27;;;;;;;;;;6152938;23;20021;-79
2021/12/09 08:23:17;;;;;;;47.85;29.08;;;;;;;;;;6128420;23;20023;-78
2021/12/09 08:25:43;;;;;;;49.92;30.17;;;;;;;;;;6128320;23;20021;-79
2021/12/09 08:28:09;;;;;;;44.70;27.45;;;;;;;;;;6128446;23;20092;-78
2021/12/09 08:30:36;;;;;;;52.55;29.38;;;;;;;;;;6128343;23;20084;-79
2021/12/09 08:33:04;;;;;;;48.67;29.02;;;;;;;;;;6128354;23;20387;-79
2021/12/09 08:35:30;;;;;;;45.85;30.52;;;;;;;;;;6128399;23;20009;-79
2021/12/09 08:37:58;;;;;;;42.40;28.52;;;;;;;;;;6153264;23;20064;-79
2021/12/09 08:40:24;;;;;;;45.35;27.13;;;;;;;;;;6152690;23;20067;-79
2021/12/09 08:42:50;;;;;;;46.15;28.42;;;;;;;;;;6153119;23;20021;-79
2021/12/09 08:45:17;;;;;;;46.53;28.65;;;;;;;;;;6153092;23;20013;-79
2021/12/09 08:47:43;;;;;;;48.58;29.95;;;;;;;;;;6128480;23;20013;-79
2021/12/09 08:50:11;;;;;;;45.72;27.98;;;;;;;;;;6128888;23;20024;-79
2021/12/09 08:52:37;;;;;;;44.10;28.75;;;;;;;;;;6128446;23;20009;-79
2021/12/09 08:55:04;;;;;;;42.25;27.17;;;;;;;;;;6128637;23;20469;-79
2021/12/09 08:57:32;;;;;;;43.20;26.77;;;;;;;;;;6128829;23;20075;-80
2021/12/09 08:59:58;;;;;;;43.13;26.70;;;;;;;;;;6128603;23;20019;-80
2021/12/09 09:02:24;;;;;;;43.10;27.42;;;;;;;;;;6128500;23;20017;-80
2021/12/09 09:04:51;;;;;;;46.45;28.70;;;;;;;;;;6129545;23;20461;-79
2021/12/09 09:07:37;;;;;;;43.67;27.17;;;;;;;;;;6152336;23;20422;-78
2021/12/09 09:10:04;;;;;;;47.03;25.83;;;;;;;;;;6128496;23;20339;-78
2021/12/09 09:12:31;;;;;;;35.47;24.75;;;;;;;;;;6128681;23;20343;-80
2021/12/09 09:14:57;;;;;;;37.25;24.38;;;;;;;;;;6128758;23;20450;-79
2021/12/09 09:17:26;;;;;;;39.17;24.13;;;;;;;;;;6128994;23;20013;-80
2021/12/09 09:19:53;;;;;;;39.63;25.38;;;;;;;;;;6128443;23;20075;-81
2021/12/09 09:22:19;;;;;;;38.05;23.50;;;;;;;;;;6128530;23;20394;-81
2021/12/09 09:24:45;;;;;;;38.28;24.77;;;;;;;;;;6128464;23;20391;-81
2021/12/09 09:27:12;;;;;;;38.35;24.92;;;;;;;;;;6128581;23;20017;-82
2021/12/09 09:29:40;;;;;;;44.97;25.33;;;;;;;;;;6128831;23;20059;-81
2021/12/09 09:32:07;;;;;;;40.28;25.42;;;;;;;;;;6153335;23;20099;-81
2021/12/09 09:34:33;;;;;;;41.30;23.77;;;;;;;;;;6153120;23;20009;-81
2021/12/09 09:36:59;;;;;;;41.15;24.67;;;;;;;;;;6179376;23;20017;-81
2021/12/09 09:39:29;;;;;;;34.53;22.92;;;;;;;;;;6153211;23;20015;-81
2021/12/09 09:42:16;;;;;;;39.15;24.25;;;;;;;;;;6152853;23;20406;-81
2021/12/09 09:44:54;;;;;;;40.88;24.63;;;;;;;;;;6128531;23;20103;-81
2021/12/09 09:47:21;;;;;;;38.38;24.13;;;;;;;;;;6152840;23;20055;-81
2021/12/09 09:49:47;;;;;;;36.00;24.08;;;;;;;;;;6152775;23;20017;-80
2021/12/09 09:52:13;;;;;;;40.63;23.80;;;;;;;;;;6152847;23;20355;-79
2021/12/09 09:54:40;;;;;;;41.40;24.45;;;;;;;;;;6179580;23;20009;-80
2021/12/09 09:57:06;;;;;;;38.20;23.67;;;;;;;;;;6128180;23;20013;-80
2021/12/09 09:59:33;;;;;;;34.47;22.58;;;;;;;;;;6128358;23;20103;-80
2021/12/09 10:01:59;;;;;;;36.08;22.70;;;;;;;;;;6179161;23;20049;-80
2021/12/09 10:04:44;;;;;;;34.92;22.52;;;;;;;;;;6152950;23;20068;-80
2021/12/09 10:07:10;;;;;;;34.58;21.98;;;;;;;;;;6152404;23;20080;-80
2021/12/09 10:09:36;;;;;;;36.22;21.90;;;;;;;;;;6128340;23;20013;-80
2021/12/09 10:12:02;;;;;;;34.08;21.27;;;;;;;;;;6152845;23;20418;-81
2021/12/09 10:14:32;;;;;;;35.45;21.08;;;;;;;;;;6155223;23;20068;-81
2021/12/09 10:17:04;;;;;;;39.03;21.45;;;;;;;;;;6181785;23;20451;-81
2021/12/09 10:19:30;;;;;;;33.42;19.75;;;;;;;;;;6131152;23;20010;-81
2021/12/09 10:22:08;;;;;;;35.55;21.15;;;;;;;;;;6157720;23;20013;-80
2021/12/09 10:24:35;;;;;;;34.92;20.30;;;;;;;;;;6157255;23;20052;-80
2021/12/09 10:27:01;;;;;;;32.28;18.17;;;;;;;;;;6154703;23;20347;-81
2021/12/09 10:31:58;;;;;;;34.50;20.25;;;;;;;;;;6154401;23;20013;-82
2021/12/09 10:34:37;;;;;;;34.00;20.05;;;;;;;;;;6154258;23;20508;-81
2021/12/09 10:37:06;;;;;;;29.92;19.15;;;;;;;;;;6155356;23;20025;-81
2021/12/09 10:39:34;;;;;;;26.23;18.63;;;;;;;;;;6154699;23;20068;-81
2021/12/09 10:42:05;;;;;;;28.80;18.15;;;;;;;;;;6130221;23;20013;-82
2021/12/09 10:44:39;;;;;;;31.27;19.58;;;;;;;;;;6154820;23;20386;-82
2021/12/09 10:47:22;;;;;;;28.17;18.52;;;;;;;;;;6130005;23;20013;-80
2021/12/09 10:49:52;;;;;;;27.15;18.55;;;;;;;;;;6155199;23;20017;-81
2021/12/09 10:52:21;;;;;;;29.63;18.75;;;;;;;;;;6130327;23;20009;-81
2021/12/09 10:54:47;;;;;;;29.70;18.13;;;;;;;;;;6126426;23;20501;-80
2021/12/09 10:57:27;;;;;;;30.02;19.33;;;;;;;;;;6128900;23;20418;-80
2021/12/09 10:59:53;;;;;;;25.45;17.63;;;;;;;;;;6153871;23;20013;-80
2021/12/09 11:02:20;;;;;;;28.05;18.48;;;;;;;;;;6154385;23;20099;-80
2021/12/09 11:05:03;;;;;;;27.45;19.00;;;;;;;;;;6127043;23;20024;-80
2021/12/09 11:07:31;;;;;;;30.98;18.58;;;;;;;;;;6153974;23;20024;-81
2021/12/09 11:10:16;;;;;;;27.20;18.70;;;;;;;;;;6154042;23;20035;-81
2021/12/09 11:12:50;;;;;;;26.20;18.70;;;;;;;;;;6154104;23;20091;-82
2021/12/09 11:15:17;;;;;;;25.70;16.60;;;;;;;;;;6129423;23;20024;-82
2021/12/09 11:17:47;;;;;;;29.27;17.83;;;;;;;;;;6180826;23;20023;-81
2021/12/09 11:20:14;;;;;;;28.38;18.40;;;;;;;;;;6129522;23;20072;-81
2021/12/09 11:22:43;;;;;;;26.55;18.10;;;;;;;;;;6153900;23;20017;-80
2021/12/09 11:25:32;;;;;;;26.00;16.75;;;;;;;;;;6153623;23;20067;-80
2021/12/09 11:28:13;;;;;;;31.38;17.00;;;;;;;;;;6180639;23;20020;-82
2021/12/09 11:31:03;;;;;;;28.52;17.83;;;;;;;;;;6154150;23;20088;-80
2021/12/09 11:33:31;;;;;;;26.90;17.67;;;;;;;;;;6178413;23;20017;-79
2021/12/09 11:35:57;;;;;;;26.27;17.05;;;;;;;;;;6152994;23;20047;-79
2021/12/09 11:38:43;;;;;;;28.85;17.77;;;;;;;;;;6128587;23;20013;-80
2021/12/09 11:41:27;;;;;;;27.70;17.70;;;;;;;;;;6154644;23;20029;-79
2021/12/09 11:43:53;;;;;;;28.10;17.58;;;;;;;;;;6180442;23;20041;-80
2021/12/09 11:46:19;;;;;;;29.45;18.23;;;;;;;;;;6180819;23;20020;-79
2021/12/09 11:48:45;;;;;;;32.83;18.90;;;;;;;;;;6154470;23;20048;-79
2021/12/09 11:51:12;;;;;;;27.27;18.05;;;;;;;;;;6154198;23;20020;-80
2021/12/09 11:53:42;;;;;;;33.80;19.95;;;;;;;;;;6153865;23;20096;-79
2021/12/09 11:56:22;;;;;;;34.67;20.55;;;;;;;;;;6129555;23;20013;-79
2021/12/09 12:15:04;;;;;;;;;;;;;;;;;;6180914;23;20048;-79
2021/12/09 12:22:50;;;;;;;32.45;19.42;;;;;;;;;;6153810;23;20017;-80
2021/12/09 12:26:02;;;;;;;35.80;19.45;;;;;;;;;;6153953;23;20020;-80
2021/12/09 12:37:20;;;;;;;29.42;17.80;;;;;;;;;;6064433;23;20018;-81
2021/12/09 12:42:35;;;;;;;30.35;18.33;;;;;;;;;;6153763;23;20021;-80
2021/12/09 12:45:27;;;;;;;28.67;17.77;;;;;;;;;;6153769;23;20467;-80
2021/12/09 12:50:32;;;;;;;28.58;19.65;;;;;;;;;;6180068;23;20359;-79
2021/12/09 12:53:18;;;;;;;29.00;18.80;;;;;;;;;;6153448;23;20016;-79
2021/12/09 12:56:04;;;;;;;27.60;17.35;;;;;;;;;;6153331;23;20013;-79
2021/12/09 12:58:30;;;;;;;29.63;18.45;;;;;;;;;;6153548;23;20541;-79
2021/12/09 13:01:14;;;;;;;31.88;18.42;;;;;;;;;;6179660;23;20013;-79
2021/12/09 13:03:45;;;;;;;40.22;19.30;;;;;;;;;;6153608;23;20013;-79
2021/12/09 13:06:15;;;;;;;30.40;18.67;;;;;;;;;;6128774;23;20085;-79
2021/12/09 13:09:14;;;;;;;24.67;18.17;;;;;;;;;;6153447;23;20463;-79
2021/12/09 13:11:42;;;;;;;32.05;20.58;;;;;;;;;;6153424;23;20009;-79
2021/12/09 13:14:17;;;;;;;31.52;19.45;;;;;;;;;;6179841;23;20459;-79
2021/12/09 13:17:04;;;;;;;29.17;18.77;;;;;;;;;;6179955;23;20017;-79
2021/12/09 13:21:59;;;;;;;29.88;19.20;;;;;;;;;;6179135;23;20024;-79
2021/12/09 13:24:37;;;;;;;37.65;20.27;;;;;;;;;;6179979;23;20096;-80
2021/12/09 13:27:05;;;;;;;34.63;20.88;;;;;;;;;;6153022;23;20230;-81
2021/12/09 13:29:39;;;;;;;29.38;19.63;;;;;;;;;;6152885;23;20021;-80
2021/12/09 13:32:22;;;;;;;34.45;20.23;;;;;;;;;;6152582;23;20013;-80
2021/12/09 13:35:04;;;;;;;32.35;19.67;;;;;;;;;;6152335;23;20020;-80
2021/12/09 13:37:52;;;;;;;30.30;19.10;;;;;;;;;;6152616;23;20021;-80
2021/12/09 13:40:24;;;;;;;36.55;20.10;;;;;;;;;;6152528;23;20017;-80
2021/12/09 13:45:56;;;;;;;30.77;20.02;;;;;;;;;;6153305;23;20355;-79
2021/12/09 13:48:30;;;;;;;36.42;20.92;;;;;;;;;;6128327;23;20123;-80
2021/12/09 13:56:07;;;;;;;;;;;;;;;;;;6180140;23;20487;-79
2021/12/09 13:58:33;;;;;;;36.13;20.38;;;;;;;;;;6128475;23;19994;-79
2021/12/09 14:00:59;;;;;;;32.40;20.65;;;;;;;;;;6179723;23;20497;-79
2021/12/09 14:03:26;;;;;;;43.65;20.77;;;;;;;;;;6178930;23;20013;-79
2021/12/09 14:05:57;;;;;;;35.85;21.05;;;;;;;;;;6152517;23;20368;-79
2021/12/09 14:08:34;;;;;;;34.38;20.83;;;;;;;;;;6153330;23;20047;-79
2021/12/09 14:11:04;;;;;;;38.10;22.52;;;;;;;;;;6153325;23;20058;-79
2021/12/09 14:13:33;;;;;;;35.45;22.35;;;;;;;;;;6179641;23;20105;-79
2021/12/09 14:18:43;;;;;;;35.10;22.40;;;;;;;;;;6179432;23;20051;-79
2021/12/09 14:21:09;;;;;;;38.25;23.25;;;;;;;;;;6153098;23;20089;-79
2021/12/09 14:23:35;;;;;;;42.00;23.20;;;;;;;;;;6179372;23;20048;-79
2021/12/09 14:26:02;;;;;;;41.22;22.73;;;;;;;;;;6152961;23;20087;-79
2021/12/09 14:28:31;;;;;;;41.03;22.67;;;;;;;;;;6152740;23;20412;-80
2021/12/09 14:30:58;;;;;;;38.45;22.42;;;;;;;;;;6153075;23;20068;-80
2021/12/09 14:33:24;;;;;;;34.83;20.50;;;;;;;;;;6153083;23;20064;-80
2021/12/09 14:35:56;;;;;;;32.90;19.65;;;;;;;;;;6128416;23;20013;-80
2021/12/09 14:38:24;;;;;;;37.75;21.65;;;;;;;;;;6149767;23;20025;-80
2021/12/09 14:40:54;;;;;;;35.60;21.00;;;;;;;;;;6152433;23;20063;-80
2021/12/09 14:43:22;;;;;;;41.60;21.27;;;;;;;;;;6152847;23;20025;-79
2021/12/09 14:45:54;;;;;;;31.38;19.02;;;;;;;;;;6152072;23;20025;-80
2021/12/09 14:48:28;;;;;;;35.35;19.63;;;;;;;;;;6151765;23;20017;-79
2021/12/09 14:50:54;;;;;;;32.50;19.77;;;;;;;;;;6152420;23;20375;-80
2021/12/09 14:53:37;;;;;;;30.48;19.27;;;;;;;;;;6127882;23;20052;-80
2021/12/09 14:56:03;;;;;;;34.80;19.10;;;;;;;;;;6152289;23;20013;-80
2021/12/09 14:58:38;;;;;;;32.28;19.33;;;;;;;;;;6153687;23;20028;-81
2021/12/09 15:01:09;;;;;;;33.25;19.50;;;;;;;;;;6129159;23;20358;-80
2021/12/09 15:03:38;;;;;;;29.42;19.25;;;;;;;;;;6154184;23;20017;-80
2021/12/09 15:06:05;;;;;;;29.55;19.00;;;;;;;;;;6154201;23;20470;-81
2021/12/09 15:08:32;;;;;;;27.08;18.77;;;;;;;;;;6129577;23;20017;-80
2021/12/09 15:11:00;;;;;;;32.90;19.77;;;;;;;;;;6128426;23;20386;-81
2021/12/09 15:13:28;;;;;;;29.55;18.90;;;;;;;;;;6129166;23;20021;-81
2021/12/09 15:16:01;;;;;;;31.85;19.15;;;;;;;;;;6129237;23;20013;-81
2021/12/09 15:18:27;;;;;;;29.25;18.00;;;;;;;;;;6153460;23;20013;-80
2021/12/09 15:20:57;;;;;;;30.17;18.13;;;;;;;;;;6153697;23;20017;-81